createdAt,value
2018-08-13T00:00:42.857Z,65.94
2018-08-13T00:01:42.897Z,66.61
2018-08-13T00:02:42.800Z,65.84
2018-08-13T00:03:43.812Z,65.36
2018-08-13T00:04:42.751Z,65.56
2018-08-13T00:05:42.806Z,66.52
2018-08-13T00:06:42.701Z,65.56
2018-08-13T00:07:42.710Z,66.52
2018-08-13T00:08:42.655Z,66.71
2018-08-13T00:09:42.724Z,65.75
2018-08-13T00:10:42.608Z,65.46
2018-08-13T00:11:44.695Z,64.98
2018-08-13T00:12:42.568Z,65.08
2018-08-13T00:13:42.661Z,65.56
2018-08-13T00:15:37.076Z,65.36
2018-08-13T00:16:36.967Z,66.03
2018-08-13T00:17:37.020Z,66.61
2018-08-13T00:18:36.923Z,66.80
2018-08-13T00:19:36.917Z,65.65
2018-08-13T00:20:36.889Z,65.27
2018-08-13T00:21:37.904Z,65.52
2018-08-13T00:22:36.841Z,66.61
2018-08-13T00:23:36.809Z,65.36
2018-08-13T00:24:36.905Z,65.46
2018-08-13T00:25:36.770Z,65.75
2018-08-13T00:26:37.829Z,65.91
2018-08-13T00:27:36.709Z,65.84
2018-08-13T00:28:36.715Z,65.08
2018-08-13T00:29:36.670Z,65.33
2018-08-13T00:30:36.763Z,65.17
2018-08-13T00:31:36.636Z,65.17
2018-08-13T00:32:36.641Z,64.98
2018-08-13T00:33:36.567Z,65.33
2018-08-13T00:34:36.553Z,65.62
2018-08-13T00:35:37.585Z,65.56
2018-08-13T00:36:36.496Z,65.46
2018-08-13T00:37:36.526Z,66.03
2018-08-13T00:38:36.455Z,66.42
2018-08-13T00:39:36.542Z,66.03
2018-08-13T00:40:36.407Z,66.13
2018-08-13T00:41:36.453Z,66.61
2018-08-13T00:42:36.371Z,66.80
2018-08-13T00:43:36.362Z,66.80
2018-08-13T00:44:36.320Z,66.90
2018-08-13T00:45:36.377Z,66.52
2018-08-13T00:46:36.270Z,66.61
2018-08-13T00:47:36.295Z,66.90
2018-08-13T00:48:36.219Z,66.80
2018-08-13T00:49:36.302Z,67.57
2018-08-13T00:50:36.174Z,67.29
2018-08-13T00:51:36.213Z,67.29
2018-08-13T00:52:36.136Z,67.47
2018-08-13T00:53:36.133Z,67.38
2018-08-13T00:54:36.079Z,67.38
2018-08-13T00:55:36.151Z,68.34
2018-08-13T00:56:36.038Z,68.53
2018-08-13T00:57:36.058Z,68.05
2018-08-13T00:58:36.003Z,68.63
2018-08-13T00:59:36.061Z,68.73
2018-08-13T01:00:35.942Z,69.01
2018-08-13T01:01:35.972Z,68.63
2018-08-13T01:02:35.899Z,69.68
2018-08-13T01:03:35.900Z,68.69
2018-08-13T01:04:35.850Z,69.65
2018-08-13T01:05:35.905Z,69.74
2018-08-13T01:06:35.803Z,69.56
2018-08-13T01:07:35.827Z,69.93
2018-08-13T01:08:35.747Z,70.03
2018-08-13T01:09:35.825Z,69.93
2018-08-13T01:10:35.720Z,69.93
2018-08-13T01:11:35.734Z,70.32
2018-08-13T01:12:35.665Z,70.13
2018-08-13T01:13:37.516Z,71.19
2018-08-13T01:14:35.662Z,71.19
2018-08-13T01:15:35.588Z,70.61
2018-08-13T01:16:35.677Z,70.23
2018-08-13T01:17:35.541Z,70.13
2018-08-13T01:18:35.585Z,70.03
2018-08-13T01:19:35.499Z,69.93
2018-08-13T01:20:35.497Z,69.56
2018-08-13T01:21:35.455Z,69.65
2018-08-13T01:22:35.508Z,70.32
2018-08-13T01:23:35.403Z,70.80
2018-08-13T01:24:35.419Z,70.61
2018-08-13T01:25:35.356Z,70.23
2018-08-13T01:26:35.440Z,69.84
2018-08-13T01:27:35.308Z,70.03
2018-08-13T01:28:35.355Z,70.23
2018-08-13T01:29:35.258Z,69.74
2018-08-13T01:30:35.263Z,70.03
2018-08-13T01:31:35.225Z,69.36
2018-08-13T01:32:35.277Z,69.17
2018-08-13T01:33:35.174Z,69.74
2018-08-13T01:34:35.186Z,69.93
2018-08-13T01:35:35.128Z,69.46
2018-08-13T01:36:35.202Z,68.53
2018-08-13T01:37:35.075Z,69.30
2018-08-13T01:38:35.108Z,68.73
2018-08-13T01:39:35.022Z,68.53
2018-08-13T01:40:35.036Z,68.73
2018-08-13T01:41:34.979Z,68.15
2018-08-13T01:42:35.032Z,67.86
2018-08-13T01:43:34.929Z,68.73
2018-08-13T01:44:34.945Z,68.53
2018-08-13T01:45:34.888Z,69.11
2018-08-13T01:46:34.961Z,68.53
2018-08-13T01:47:34.840Z,68.44
2018-08-13T01:48:34.869Z,68.91
2018-08-13T01:49:34.789Z,68.73
2018-08-13T01:50:34.880Z,68.73
2018-08-13T01:51:34.745Z,69.68
2018-08-13T01:52:34.797Z,70.26
2018-08-13T01:53:34.742Z,69.68
2018-08-13T01:54:34.703Z,69.87
2018-08-13T01:55:34.655Z,69.68
2018-08-13T01:56:34.745Z,69.59
2018-08-13T01:57:34.611Z,69.49
2018-08-13T01:58:34.661Z,69.87
2018-08-13T01:59:34.549Z,69.78
2018-08-13T02:00:34.573Z,69.68
2018-08-13T02:01:34.560Z,69.87
2018-08-13T02:02:34.575Z,69.49
2018-08-13T02:03:34.454Z,68.44
2018-08-13T02:04:34.495Z,69.40
2018-08-13T02:05:34.405Z,69.97
2018-08-13T02:06:34.406Z,70.17
2018-08-13T02:07:34.378Z,70.36
2018-08-13T02:08:34.440Z,69.68
2018-08-13T02:09:34.315Z,69.78
2018-08-13T02:10:35.376Z,69.59
2018-08-13T02:11:34.271Z,69.11
2018-08-13T02:12:34.370Z,68.63
2018-08-13T02:13:34.232Z,67.86
2018-08-13T02:14:34.276Z,67.76
2018-08-13T02:15:34.174Z,67.09
2018-08-13T02:16:35.208Z,67.00
2018-08-13T02:17:34.129Z,66.80
2018-08-13T02:18:39.129Z,67.09
2018-08-13T02:19:34.078Z,66.90
2018-08-13T02:20:35.136Z,67.38
2018-08-13T02:21:34.039Z,68.24
2018-08-13T02:22:34.024Z,68.79
2018-08-13T02:23:33.991Z,68.24
2018-08-13T02:24:34.036Z,69.49
2018-08-13T02:25:33.943Z,68.53
2018-08-13T02:26:34.990Z,68.63
2018-08-13T02:27:33.893Z,68.53
2018-08-13T02:28:35.012Z,68.15
2018-08-13T02:29:33.847Z,68.44
2018-08-13T02:30:33.923Z,69.49
2018-08-13T02:31:33.807Z,69.20
2018-08-13T02:32:34.840Z,68.44
2018-08-13T02:33:33.749Z,67.96
2018-08-13T02:34:34.754Z,67.47
2018-08-13T02:35:33.697Z,68.15
2018-08-13T02:36:33.747Z,67.96
2018-08-13T02:37:33.673Z,68.05
2018-08-13T02:38:33.656Z,68.53
2018-08-13T02:39:33.611Z,69.01
2018-08-13T02:40:34.689Z,68.53
2018-08-13T02:41:33.559Z,68.53
2018-08-13T02:42:33.582Z,68.15
2018-08-13T02:43:33.514Z,67.09
2018-08-13T02:44:33.607Z,66.52
2018-08-13T02:45:33.474Z,67.76
2018-08-13T02:46:33.502Z,66.80
2018-08-13T02:47:33.422Z,66.33
2018-08-13T02:48:33.412Z,65.94
2018-08-13T02:49:33.395Z,65.84
2018-08-13T02:50:34.453Z,66.42
2018-08-13T02:51:33.318Z,66.23
2018-08-13T02:52:33.343Z,66.13
2018-08-13T02:53:33.291Z,65.94
2018-08-13T02:54:33.352Z,66.33
2018-08-13T02:55:33.236Z,65.75
2018-08-13T02:56:33.265Z,65.17
2018-08-13T02:57:33.197Z,65.17
2018-08-13T02:58:33.281Z,64.31
2018-08-13T02:59:33.134Z,64.50
2018-08-13T03:00:33.192Z,64.89
2018-08-13T03:01:33.084Z,65.17
2018-08-13T03:02:33.104Z,65.56
2018-08-13T03:03:33.043Z,65.27
2018-08-13T03:04:33.135Z,65.65
2018-08-13T03:05:32.985Z,65.08
2018-08-13T03:06:33.023Z,65.36
2018-08-13T03:07:32.959Z,65.36
2018-08-13T03:08:33.986Z,65.75
2018-08-13T03:09:32.906Z,66.33
2018-08-13T03:10:32.966Z,65.75
2018-08-13T03:11:32.861Z,66.42
2018-08-13T03:12:32.871Z,64.69
2018-08-13T03:13:32.804Z,65.27
2018-08-13T03:14:38.611Z,65.17
2018-08-13T03:15:32.761Z,65.36
2018-08-13T03:16:32.855Z,65.75
2018-08-13T03:17:32.705Z,65.94
2018-08-13T03:18:32.767Z,65.94
2018-08-13T03:19:32.676Z,66.61
2018-08-13T03:20:32.681Z,66.90
2018-08-13T03:21:32.611Z,68.24
2018-08-13T03:22:32.687Z,66.13
2018-08-13T03:23:32.565Z,66.13
2018-08-13T03:24:32.606Z,66.23
2018-08-13T03:25:32.539Z,66.52
2018-08-13T03:26:32.612Z,66.90
2018-08-13T03:27:32.538Z,68.34
2018-08-13T03:28:32.542Z,68.63
2018-08-13T03:29:32.437Z,68.53
2018-08-13T03:30:32.443Z,68.34
2018-08-13T03:31:32.372Z,68.34
2018-08-13T03:32:32.446Z,68.15
2018-08-13T03:33:32.389Z,67.00
2018-08-13T03:34:32.368Z,67.76
2018-08-13T03:35:32.286Z,68.63
2018-08-13T03:36:32.368Z,67.57
2018-08-13T03:37:32.234Z,66.71
2018-08-13T03:38:32.291Z,67.00
2018-08-13T03:39:32.194Z,66.90
2018-08-13T03:40:32.192Z,66.33
2018-08-13T03:41:32.159Z,66.39
2018-08-13T03:42:32.210Z,66.13
2018-08-13T03:43:32.099Z,66.13
2018-08-13T03:44:32.119Z,66.42
2018-08-13T03:45:32.044Z,65.94
2018-08-13T03:46:32.134Z,65.56
2018-08-13T03:47:32.003Z,66.19
2018-08-13T03:48:32.016Z,65.84
2018-08-13T03:49:31.966Z,66.39
2018-08-13T03:50:36.626Z,67.47
2018-08-13T03:51:32.343Z,68.73
2018-08-13T03:52:36.645Z,67.86
2018-08-13T03:53:32.060Z,67.86
2018-08-13T03:54:33.466Z,68.24
2018-08-13T03:55:31.904Z,68.73
2018-08-13T03:56:31.877Z,68.73
2018-08-13T03:57:31.762Z,67.67
2018-08-13T03:58:31.765Z,66.80
2018-08-13T03:59:31.714Z,67.19
2018-08-13T04:00:31.802Z,67.19
2018-08-13T04:01:31.672Z,66.33
2018-08-13T04:02:31.707Z,66.71
2018-08-13T04:03:31.635Z,66.61
2018-08-13T04:04:36.623Z,66.80
2018-08-13T04:05:31.591Z,67.76
2018-08-13T04:06:32.635Z,68.34
2018-08-13T04:07:31.528Z,67.76
2018-08-13T04:08:32.556Z,68.24
2018-08-13T04:09:31.488Z,68.34
2018-08-13T04:10:31.542Z,68.53
2018-08-13T04:11:31.430Z,68.44
2018-08-13T04:12:31.471Z,68.05
2018-08-13T04:13:31.392Z,68.91
2018-08-13T04:14:32.478Z,68.53
2018-08-13T04:15:31.348Z,68.53
2018-08-13T04:16:31.382Z,67.67
2018-08-13T04:17:31.292Z,68.63
2018-08-13T04:18:31.284Z,67.86
2018-08-13T04:19:31.264Z,68.44
2018-08-13T04:20:31.301Z,68.05
2018-08-13T04:21:31.203Z,68.15
2018-08-13T04:22:31.207Z,68.15
2018-08-13T04:23:31.175Z,68.34
2018-08-13T04:24:33.175Z,68.15
2018-08-13T04:25:31.115Z,68.24
2018-08-13T04:27:19.461Z,68.53
2018-08-13T04:28:19.480Z,68.15
2018-08-13T04:29:19.377Z,68.53
2018-08-13T04:30:19.394Z,68.05
2018-08-13T04:31:19.355Z,67.57
2018-08-13T04:32:19.391Z,68.44
2018-08-13T04:33:19.284Z,67.86
2018-08-13T04:34:19.271Z,67.38
2018-08-13T04:35:19.242Z,67.09
2018-08-13T04:36:19.213Z,67.00
2018-08-13T04:37:19.191Z,66.80
2018-08-13T04:38:19.177Z,66.80
2018-08-13T04:39:19.138Z,67.00
2018-08-13T04:40:19.197Z,66.61
2018-08-13T04:41:19.156Z,66.42
2018-08-13T04:42:19.068Z,66.26
2018-08-13T04:43:19.169Z,65.75
2018-08-13T04:44:19.024Z,65.88
2018-08-13T04:45:21.026Z,65.69
2018-08-13T04:46:18.973Z,65.78
2018-08-13T04:47:18.995Z,65.30
2018-08-13T04:48:18.928Z,65.78
2018-08-13T04:49:19.924Z,65.69
2018-08-13T04:50:18.885Z,66.07
2018-08-13T04:51:18.913Z,67.80
2018-08-13T04:52:18.875Z,67.32
2018-08-13T04:53:19.952Z,67.99
2018-08-13T04:54:18.783Z,67.70
2018-08-13T04:55:18.849Z,67.80
2018-08-13T04:56:18.745Z,68.57
2018-08-13T04:57:18.723Z,68.66
2018-08-13T04:58:18.705Z,68.57
2018-08-13T04:59:18.665Z,68.66
2018-08-13T05:00:18.643Z,68.37
2018-08-13T05:01:18.621Z,67.03
2018-08-13T05:02:18.600Z,66.93
2018-08-13T05:03:18.575Z,66.26
2018-08-13T05:04:18.552Z,66.26
2018-08-13T05:05:18.541Z,65.88
2018-08-13T05:06:19.534Z,66.16
2018-08-13T05:07:18.527Z,66.84
2018-08-13T05:08:18.535Z,66.64
2018-08-13T05:09:18.439Z,66.93
2018-08-13T05:10:19.000Z,66.55
2018-08-13T05:11:18.394Z,66.46
2018-08-13T05:12:18.366Z,66.84
2018-08-13T05:13:18.447Z,66.16
2018-08-13T05:14:18.324Z,66.64
2018-08-13T05:15:18.370Z,66.55
2018-08-13T05:16:18.279Z,65.88
2018-08-13T05:17:18.257Z,65.78
2018-08-13T05:18:18.224Z,66.55
2018-08-13T05:20:06.109Z,66.16
2018-08-13T05:21:06.133Z,65.59
2018-08-13T05:22:06.024Z,65.43
2018-08-13T05:23:06.048Z,65.43
2018-08-13T05:24:05.985Z,65.01
2018-08-13T05:25:05.948Z,64.76
2018-08-13T05:26:05.969Z,66.20
2018-08-13T05:27:05.918Z,65.72
2018-08-13T05:28:05.901Z,64.85
2018-08-13T05:29:05.969Z,65.14
2018-08-13T05:30:05.918Z,65.05
2018-08-13T05:31:05.876Z,64.76
2018-08-13T05:32:05.790Z,64.56
2018-08-13T05:33:05.788Z,64.47
2018-08-13T05:34:05.755Z,64.76
2018-08-13T05:35:05.719Z,63.99
2018-08-13T05:36:05.707Z,65.05
2018-08-13T05:37:05.671Z,64.56
2018-08-13T05:38:05.666Z,64.85
2018-08-13T05:39:05.642Z,64.37
2018-08-13T05:40:05.600Z,64.95
2018-08-13T05:41:05.582Z,64.47
2018-08-13T05:42:05.557Z,64.76
2018-08-13T05:43:05.567Z,64.47
2018-08-13T05:44:05.517Z,64.09
2018-08-13T05:45:05.587Z,64.18
2018-08-13T05:46:05.469Z,64.66
2018-08-13T05:47:05.441Z,64.09
2018-08-13T05:48:05.489Z,64.18
2018-08-13T05:49:05.387Z,64.09
2018-08-13T05:50:05.400Z,64.47
2018-08-13T05:51:01.515Z,64.47
2018-08-13T05:52:01.522Z,64.12
2018-08-13T05:53:59.832Z,64.18
2018-08-13T05:54:59.754Z,64.47
2018-08-13T05:56:01.744Z,64.56
2018-08-13T05:56:59.682Z,64.66
2018-08-13T05:57:59.716Z,65.37
2018-08-13T05:58:59.639Z,65.46
2018-08-13T06:00:00.653Z,64.66
2018-08-13T06:00:59.591Z,65.27
2018-08-13T06:01:59.640Z,66.33
2018-08-13T06:02:59.568Z,65.72
2018-08-13T06:03:59.563Z,66.39
2018-08-13T06:04:59.498Z,67.10
2018-08-13T06:05:59.494Z,67.96
2018-08-13T06:06:59.570Z,69.31
2018-08-13T06:07:59.422Z,69.98
2018-08-13T06:08:59.491Z,68.54
2018-08-13T06:09:59.379Z,69.08
2018-08-13T06:10:59.406Z,69.75
2018-08-13T06:11:59.338Z,69.56
2018-08-13T06:12:59.410Z,69.46
2018-08-13T06:13:59.288Z,70.33
2018-08-13T06:14:59.320Z,71.67
2018-08-13T06:15:59.229Z,72.64
2018-08-13T06:16:59.228Z,72.16
2018-08-13T06:17:59.271Z,72.16
2018-08-13T06:18:59.248Z,72.06
2018-08-13T06:19:59.144Z,72.16
2018-08-13T06:20:59.169Z,71.96
2018-08-13T06:21:59.106Z,72.54
2018-08-13T06:22:59.195Z,72.96
2018-08-13T06:23:52.722Z,72.77
2018-08-13T06:24:52.744Z,73.44
2018-08-13T06:26:50.945Z,73.54
2018-08-13T06:27:50.854Z,73.44
2018-08-13T06:28:50.914Z,74.11
2018-08-13T06:29:50.793Z,73.92
2018-08-13T06:30:50.828Z,73.83
2018-08-13T06:31:50.746Z,74.21
2018-08-13T06:32:50.738Z,74.02
2018-08-13T06:33:50.696Z,74.21
2018-08-13T06:34:50.764Z,74.02
2018-08-13T06:35:50.647Z,74.21
2018-08-13T06:36:55.701Z,74.60
2018-08-13T06:37:50.618Z,75.07
2018-08-13T06:38:50.684Z,74.69
2018-08-13T06:39:50.560Z,74.98
2018-08-13T06:40:50.603Z,75.37
2018-08-13T06:41:50.521Z,76.14
2018-08-13T06:42:50.507Z,76.52
2018-08-13T06:43:50.461Z,76.42
2018-08-13T06:44:50.524Z,76.52
2018-08-13T06:45:50.434Z,76.61
2018-08-13T06:46:50.427Z,77.09
2018-08-13T06:47:50.365Z,77.00
2018-08-13T06:48:50.452Z,77.00
2018-08-13T06:49:50.318Z,77.19
2018-08-13T06:50:50.352Z,77.29
2018-08-13T06:51:50.298Z,76.75
2018-08-13T06:52:50.261Z,77.23
2018-08-13T06:53:50.254Z,77.04
2018-08-13T06:54:50.276Z,77.23
2018-08-13T06:55:50.186Z,76.56
2018-08-13T06:56:50.201Z,76.65
2018-08-13T06:57:50.129Z,76.84
2018-08-13T06:58:50.208Z,76.36
2018-08-13T06:59:50.093Z,76.94
2018-08-13T07:00:50.115Z,76.21
2018-08-13T07:01:50.037Z,76.11
2018-08-13T07:02:50.093Z,75.54
2018-08-13T07:04:36.147Z,76.31
2018-08-13T07:05:36.167Z,76.31
2018-08-13T07:06:36.053Z,76.21
2018-08-13T07:07:36.076Z,75.92
2018-08-13T07:08:36.011Z,76.59
2018-08-13T07:09:36.070Z,76.40
2018-08-13T07:10:35.957Z,77.75
2018-08-13T07:11:35.994Z,78.67
2018-08-13T07:12:35.935Z,80.02
2018-08-13T07:13:35.985Z,80.88
2018-08-13T07:14:35.861Z,81.75
2018-08-13T07:15:35.860Z,83.00
2018-08-13T07:16:35.819Z,82.71
2018-08-13T07:17:35.802Z,84.06
2018-08-13T07:18:35.818Z,84.78
2018-08-13T07:19:35.753Z,85.21
2018-08-13T07:20:35.727Z,85.36
2018-08-13T07:22:26.046Z,87.90
2018-08-13T07:23:25.981Z,87.86
2018-08-13T07:25:20.040Z,89.69
2018-08-13T07:26:19.990Z,89.50
2018-08-13T07:27:19.980Z,89.64
2018-08-13T07:28:19.952Z,90.26
2018-08-13T07:29:21.920Z,90.55
2018-08-13T07:30:19.899Z,90.84
2018-08-13T07:31:19.905Z,91.27
2018-08-13T07:32:19.854Z,91.17
2018-08-13T07:33:21.862Z,91.75
2018-08-13T07:34:19.807Z,93.00
2018-08-13T07:35:19.805Z,93.38
2018-08-13T07:36:19.780Z,92.81
2018-08-13T07:37:19.749Z,93.38
2018-08-13T07:38:19.721Z,93.38
2018-08-13T07:39:19.697Z,92.81
2018-08-13T07:40:19.656Z,93.05
2018-08-13T07:41:19.635Z,92.38
2018-08-13T07:42:19.663Z,93.72
2018-08-13T07:43:19.590Z,93.05
2018-08-13T07:44:19.574Z,92.66
2018-08-13T07:45:19.557Z,90.93
2018-08-13T07:46:19.508Z,90.06
2018-08-13T07:47:20.500Z,90.20
2018-08-13T07:48:19.486Z,89.63
2018-08-13T07:50:06.959Z,88.28
2018-08-13T07:51:06.923Z,87.94
2018-08-13T07:52:06.874Z,86.93
2018-08-13T07:53:06.886Z,87.46
2018-08-13T07:54:06.836Z,86.98
2018-08-13T07:55:07.809Z,86.88
2018-08-13T07:56:06.784Z,87.94
2018-08-13T07:57:06.748Z,86.21
2018-08-13T07:58:06.737Z,84.76
2018-08-13T07:59:06.728Z,86.01
2018-08-13T08:00:06.730Z,85.86
2018-08-13T08:01:06.693Z,86.01
2018-08-13T08:02:06.649Z,86.88
2018-08-13T08:03:07.625Z,86.49
2018-08-13T08:04:06.583Z,85.86
2018-08-13T08:05:06.614Z,84.99
2018-08-13T08:06:06.542Z,85.47
2018-08-13T08:07:08.531Z,85.09
2018-08-13T08:08:06.494Z,85.38
2018-08-13T08:09:06.550Z,84.90
2018-08-13T08:10:06.440Z,84.94
2018-08-13T08:11:06.433Z,83.30
2018-08-13T08:12:06.418Z,84.46
2018-08-13T08:13:52.403Z,82.68
2018-08-13T08:14:52.359Z,83.20
2018-08-13T08:15:52.314Z,82.14
2018-08-13T08:16:52.317Z,82.72
2018-08-13T08:17:52.281Z,83.01
2018-08-13T08:18:57.762Z,82.62
2018-08-13T08:19:52.233Z,82.20
2018-08-13T08:20:52.200Z,82.53
2018-08-13T08:21:52.174Z,81.91
2018-08-13T08:22:52.159Z,81.24
2018-08-13T08:23:52.144Z,81.81
2018-08-13T08:24:53.118Z,82.97
2018-08-13T08:25:52.082Z,82.78
2018-08-13T08:26:52.083Z,81.91
2018-08-13T08:27:52.043Z,81.91
2018-08-13T08:28:52.018Z,81.81
2018-08-13T08:29:51.991Z,81.62
2018-08-13T08:30:51.963Z,82.59
2018-08-13T08:31:51.943Z,81.52
2018-08-13T08:32:51.929Z,81.43
2018-08-13T08:33:51.890Z,81.81
2018-08-13T08:34:51.957Z,82.78
2018-08-13T08:35:51.860Z,81.62
2018-08-13T08:36:51.819Z,81.62
2018-08-13T08:37:51.796Z,81.52
2018-08-13T08:38:51.793Z,81.62
2018-08-13T08:39:51.761Z,81.04
2018-08-13T08:40:51.777Z,80.89
2018-08-13T08:41:51.709Z,80.79
2018-08-13T08:42:51.707Z,80.89
2018-08-13T08:43:51.646Z,80.22
2018-08-13T08:44:51.626Z,80.22
2018-08-13T08:45:51.672Z,80.41
2018-08-13T08:46:51.585Z,80.22
2018-08-13T08:47:51.852Z,79.54
2018-08-13T08:48:51.538Z,79.74
2018-08-13T08:49:51.538Z,79.29
2018-08-13T08:51:37.767Z,78.42
2018-08-13T08:52:37.757Z,78.33
2018-08-13T08:54:32.024Z,78.61
2018-08-13T08:55:31.951Z,77.84
2018-08-13T08:56:32.022Z,78.42
2018-08-13T08:57:31.896Z,78.71
2018-08-13T08:58:32.920Z,78.19
2018-08-13T08:59:31.864Z,78.58
2018-08-13T09:00:31.909Z,77.71
2018-08-13T09:01:31.819Z,77.81
2018-08-13T09:02:31.792Z,78.58
2018-08-13T09:03:31.760Z,78.58
2018-08-13T09:04:31.763Z,78.38
2018-08-13T09:05:31.743Z,77.61
2018-08-13T09:06:31.712Z,77.71
2018-08-13T09:07:31.669Z,78.19
2018-08-13T09:08:31.633Z,77.33
2018-08-13T09:09:31.615Z,77.71
2018-08-13T09:10:31.670Z,77.71
2018-08-13T09:11:31.574Z,78.38
2018-08-13T09:12:31.612Z,78.67
2018-08-13T09:13:31.510Z,77.81
2018-08-13T09:14:31.526Z,77.13
2018-08-13T09:15:31.498Z,77.33
2018-08-13T09:16:31.585Z,77.51
2018-08-13T09:17:31.441Z,77.23
2018-08-13T09:18:31.460Z,77.03
2018-08-13T09:19:31.374Z,76.45
2018-08-13T09:20:31.478Z,76.65
2018-08-13T09:21:31.324Z,77.03
2018-08-13T09:22:31.371Z,77.71
2018-08-13T09:24:17.293Z,77.42
2018-08-13T09:25:17.238Z,76.84
2018-08-13T09:26:17.179Z,77.51
2018-08-13T09:27:18.240Z,77.51
2018-08-13T09:28:17.158Z,77.71
2018-08-13T09:29:17.145Z,78.48
2018-08-13T09:30:17.119Z,77.94
2018-08-13T09:31:17.131Z,77.75
2018-08-13T09:32:17.073Z,77.36
2018-08-13T09:33:17.153Z,77.07
2018-08-13T09:34:16.988Z,77.07
2018-08-13T09:35:16.981Z,76.68
2018-08-13T09:36:16.969Z,77.17
2018-08-13T09:37:16.940Z,76.40
2018-08-13T09:38:16.935Z,76.98
2018-08-13T09:39:16.867Z,76.50
2018-08-13T09:40:16.847Z,76.78
2018-08-13T09:41:16.916Z,76.30
2018-08-13T09:42:16.799Z,76.50
2018-08-13T09:43:17.802Z,75.05
2018-08-13T09:44:16.764Z,75.24
2018-08-13T09:45:16.844Z,75.14
2018-08-13T09:46:16.707Z,74.99
2018-08-13T09:47:16.746Z,75.05
2018-08-13T09:48:16.731Z,75.37
2018-08-13T09:49:16.665Z,75.57
2018-08-13T09:50:16.614Z,75.18
2018-08-13T09:51:16.687Z,74.31
2018-08-13T09:52:16.578Z,74.69
2018-08-13T09:53:16.617Z,74.12
2018-08-13T09:54:16.514Z,74.51
2018-08-13T09:55:16.601Z,73.83
2018-08-13T09:56:16.473Z,73.48
2018-08-13T09:57:16.526Z,73.86
2018-08-13T09:58:16.430Z,72.80
2018-08-13T09:59:16.420Z,73.03
2018-08-13T10:00:16.418Z,72.06
2018-08-13T10:01:16.455Z,71.97
2018-08-13T10:02:16.337Z,71.42
2018-08-13T10:04:03.042Z,70.72
2018-08-13T10:05:03.074Z,70.90
2018-08-13T10:06:02.967Z,71.58
2018-08-13T10:07:03.060Z,71.68
2018-08-13T10:08:02.902Z,73.28
2018-08-13T10:09:02.939Z,73.67
2018-08-13T10:10:02.872Z,73.86
2018-08-13T10:11:02.975Z,73.58
2018-08-13T10:12:02.818Z,73.61
2018-08-13T10:13:02.865Z,72.94
2018-08-13T10:14:02.769Z,72.45
2018-08-13T10:15:03.807Z,72.26
2018-08-13T10:16:02.709Z,71.52
2018-08-13T10:17:03.810Z,71.04
2018-08-13T10:18:02.710Z,69.43
2018-08-13T10:19:02.709Z,70.04
2018-08-13T10:20:02.638Z,68.88
2018-08-13T10:21:02.720Z,68.24
2018-08-13T10:22:02.663Z,66.88
2018-08-13T10:23:03.665Z,67.85
2018-08-13T10:24:02.524Z,67.08
2018-08-13T10:25:02.547Z,66.78
2018-08-13T10:26:02.499Z,65.98
2018-08-13T10:27:02.566Z,66.85
2018-08-13T10:28:02.430Z,67.37
2018-08-13T10:29:02.473Z,66.98
2018-08-13T10:30:02.383Z,66.02
2018-08-13T10:31:02.475Z,65.72
2018-08-13T10:32:02.323Z,66.20
2018-08-13T10:33:02.320Z,66.11
2018-08-13T10:34:02.408Z,65.85
2018-08-13T10:35:02.253Z,64.89
2018-08-13T10:36:02.247Z,64.11
2018-08-13T10:37:02.319Z,64.01
2018-08-13T10:38:02.180Z,63.85
2018-08-13T10:39:02.169Z,63.53
2018-08-13T10:40:03.259Z,62.98
2018-08-13T10:41:02.118Z,63.07
2018-08-13T10:42:02.090Z,63.04
2018-08-13T10:43:02.062Z,63.34
2018-08-13T10:44:02.036Z,62.75
2018-08-13T10:45:02.020Z,62.95
2018-08-13T10:46:01.993Z,63.82
2018-08-13T10:47:02.073Z,63.65
2018-08-13T10:48:01.974Z,63.46
2018-08-13T10:49:01.935Z,62.20
2018-08-13T10:50:01.916Z,62.49
2018-08-13T10:51:01.865Z,62.20
2018-08-13T10:52:01.863Z,62.79
2018-08-13T10:53:01.834Z,62.01
2018-08-13T10:54:01.925Z,62.85
2018-08-13T10:55:01.782Z,62.95
2018-08-13T10:56:01.850Z,62.49
2018-08-13T10:57:01.744Z,62.07
2018-08-13T10:58:50.620Z,63.82
2018-08-13T10:59:50.515Z,63.14
2018-08-13T11:00:50.599Z,64.01
2018-08-13T11:01:50.481Z,63.49
2018-08-13T11:02:50.640Z,64.56
2018-08-13T11:03:50.432Z,64.11
2018-08-13T11:04:50.501Z,64.50
2018-08-13T11:05:50.383Z,65.56
2018-08-13T11:06:51.431Z,67.95
2018-08-13T11:07:50.347Z,70.56
2018-08-13T11:08:51.471Z,71.78
2018-08-13T11:09:50.295Z,72.95
2018-08-13T11:10:52.492Z,74.27
2018-08-13T11:11:50.244Z,76.68
2018-08-13T11:12:50.252Z,79.35
2018-08-13T11:13:50.190Z,81.48
2018-08-13T11:14:51.384Z,80.32
2018-08-13T11:15:50.146Z,82.64
2018-08-13T11:16:52.222Z,82.48
2018-08-13T11:17:50.380Z,81.71
2018-08-13T11:18:51.107Z,78.81
2018-08-13T11:19:50.055Z,80.88
2018-08-13T11:21:06.996Z,81.46
2018-08-13T11:21:50.088Z,81.56
2018-08-13T11:22:51.068Z,80.30
2018-08-13T11:23:49.964Z,77.53
2018-08-13T11:24:50.031Z,79.57
2018-08-13T11:25:49.907Z,76.37
2018-08-13T11:26:49.959Z,78.41
2018-08-13T11:27:49.860Z,74.28
2018-08-13T11:28:49.949Z,74.47
2018-08-13T11:29:49.815Z,75.24
2018-08-13T11:30:49.861Z,73.02
2018-08-13T11:31:49.770Z,72.05
2018-08-13T11:32:49.873Z,71.62
2018-08-13T11:33:49.738Z,69.89
2018-08-13T11:34:49.796Z,70.27
2018-08-13T11:35:49.667Z,70.47
2018-08-13T11:36:54.529Z,70.76
2018-08-13T11:37:49.620Z,70.66
2018-08-13T11:38:49.724Z,70.47
2018-08-13T11:39:49.591Z,70.18
2018-08-13T11:40:51.672Z,71.30
2018-08-13T11:41:49.547Z,70.56
2018-08-13T11:42:50.596Z,71.14
2018-08-13T11:43:49.497Z,70.76
2018-08-13T11:44:50.684Z,70.18
2018-08-13T11:45:49.442Z,70.18
2018-08-13T11:46:50.503Z,70.70
2018-08-13T11:47:49.447Z,70.21
2018-08-13T11:48:49.476Z,68.70
2018-08-13T11:49:49.373Z,69.18
2018-08-13T11:50:50.415Z,67.34
2018-08-13T11:51:49.329Z,67.14
2018-08-13T11:52:49.391Z,68.63
2018-08-13T11:53:49.254Z,67.08
2018-08-13T11:54:49.345Z,66.44
2018-08-13T11:55:49.216Z,66.05
2018-08-13T11:56:49.387Z,65.56
2018-08-13T11:57:49.168Z,65.59
2018-08-13T11:58:49.281Z,65.17
2018-08-13T11:59:49.145Z,64.43
2018-08-13T12:00:49.179Z,64.23
2018-08-13T12:01:49.074Z,63.65
2018-08-13T12:02:49.112Z,63.68
2018-08-13T12:03:49.215Z,63.59
2018-08-13T12:04:49.001Z,63.36
2018-08-13T12:05:49.110Z,63.36
2018-08-13T12:06:48.955Z,62.91
2018-08-13T12:07:49.130Z,63.29
2018-08-13T12:08:48.923Z,62.01
2018-08-13T12:09:49.041Z,62.59
2018-08-13T12:10:48.871Z,63.53
2018-08-13T12:11:48.962Z,63.72
2018-08-13T12:12:48.843Z,63.69
2018-08-13T12:13:48.959Z,64.95
2018-08-13T12:14:48.765Z,65.50
2018-08-13T12:15:48.881Z,64.92
2018-08-13T12:16:48.738Z,65.89
2018-08-13T12:17:48.902Z,65.01
2018-08-13T12:18:48.674Z,65.53
2018-08-13T12:19:48.821Z,65.43
2018-08-13T12:20:48.668Z,64.72
2018-08-13T12:21:48.618Z,65.05
2018-08-13T12:22:48.721Z,64.75
2018-08-13T12:23:48.578Z,64.27
2018-08-13T12:24:48.729Z,64.75
2018-08-13T12:25:48.517Z,63.33
2018-08-13T12:26:48.640Z,63.13
2018-08-13T12:27:48.486Z,63.53
2018-08-13T12:28:48.557Z,62.65
2018-08-13T12:29:48.428Z,63.43
2018-08-13T12:30:48.410Z,63.53
2018-08-13T12:31:48.582Z,63.33
2018-08-13T12:32:48.373Z,63.20
2018-08-13T12:33:48.490Z,63.40
2018-08-13T12:34:48.310Z,63.01
2018-08-13T12:35:48.378Z,64.07
2018-08-13T12:36:48.277Z,63.78
2018-08-13T12:37:48.393Z,63.10
2018-08-13T12:38:48.227Z,63.69
2018-08-13T12:39:48.288Z,64.17
2018-08-13T12:40:48.194Z,63.59
2018-08-13T12:41:48.294Z,63.88
2018-08-13T12:42:48.174Z,62.95
2018-08-13T12:43:48.219Z,62.46
2018-08-13T12:44:48.117Z,62.75
2018-08-13T12:45:48.222Z,63.23
2018-08-13T12:46:48.060Z,62.13
2018-08-13T12:47:48.152Z,62.04
2018-08-13T12:48:48.050Z,62.95
2018-08-13T12:49:48.148Z,63.72
2018-08-13T12:50:47.973Z,63.69
2018-08-13T12:51:49.094Z,63.53
2018-08-13T12:52:47.926Z,63.40
2018-08-13T12:53:48.000Z,63.98
2018-08-13T12:54:47.883Z,64.27
2018-08-13T12:55:47.844Z,64.47
2018-08-13T12:56:47.835Z,64.17
2018-08-13T12:57:47.894Z,64.56
2018-08-13T12:58:47.786Z,64.47
2018-08-13T12:59:47.933Z,64.37
2018-08-13T13:00:47.743Z,64.85
2018-08-13T13:01:47.853Z,64.56
2018-08-13T13:02:47.708Z,65.20
2018-08-13T13:03:47.838Z,65.30
2018-08-13T13:04:47.665Z,64.69